sensor_id;sensor_type;location;lat;lon;timestamp;P1;durP1;ratioP1;P2;durP2;ratioP2
60979;SDS011;46851;49.160;8.980;2023-01-08T00:02:15;12.13;;;5.05;;
60979;SDS011;46851;49.160;8.980;2023-01-08T00:04:41;7.15;;;4.75;;
60979;SDS011;46851;49.160;8.980;2023-01-08T00:07:07;5.50;;;3.88;;
60979;SDS011;46851;49.160;8.980;2023-01-08T00:09:33;8.25;;;4.15;;
60979;SDS011;46851;49.160;8.980;2023-01-08T00:11:59;5.72;;;3.92;;
60979;SDS011;46851;49.160;8.980;2023-01-08T00:14:25;7.45;;;4.47;;
60979;SDS011;46851;49.160;8.980;2023-01-08T00:16:51;5.97;;;3.85;;
60979;SDS011;46851;49.160;8.980;2023-01-08T00:19:17;5.25;;;4.00;;
60979;SDS011;46851;49.160;8.980;2023-01-08T00:21:43;4.78;;;3.70;;
60979;SDS011;46851;49.160;8.980;2023-01-08T00:24:10;5.70;;;4.28;;
60979;SDS011;46851;49.160;8.980;2023-01-08T00:26:36;7.72;;;4.57;;
60979;SDS011;46851;49.160;8.980;2023-01-08T00:29:02;6.55;;;4.20;;
60979;SDS011;46851;49.160;8.980;2023-01-08T00:31:28;5.63;;;4.07;;
60979;SDS011;46851;49.160;8.980;2023-01-08T00:33:54;7.47;;;4.45;;
60979;SDS011;46851;49.160;8.980;2023-01-08T00:36:20;6.57;;;4.20;;
60979;SDS011;46851;49.160;8.980;2023-01-08T00:38:46;6.60;;;3.83;;
60979;SDS011;46851;49.160;8.980;2023-01-08T00:41:12;6.68;;;4.47;;
60979;SDS011;46851;49.160;8.980;2023-01-08T00:43:39;6.82;;;3.83;;
60979;SDS011;46851;49.160;8.980;2023-01-08T00:46:05;7.38;;;4.65;;
60979;SDS011;46851;49.160;8.980;2023-01-08T00:48:31;6.50;;;4.70;;
60979;SDS011;46851;49.160;8.980;2023-01-08T00:51:01;5.70;;;4.18;;
60979;SDS011;46851;49.160;8.980;2023-01-08T00:53:27;6.18;;;3.97;;
60979;SDS011;46851;49.160;8.980;2023-01-08T00:56:00;10.48;;;4.97;;
60979;SDS011;46851;49.160;8.980;2023-01-08T00:58:27;6.82;;;4.65;;
60979;SDS011;46851;49.160;8.980;2023-01-08T01:00:53;6.35;;;5.07;;
60979;SDS011;46851;49.160;8.980;2023-01-08T01:03:19;8.38;;;4.95;;
60979;SDS011;46851;49.160;8.980;2023-01-08T01:05:45;8.18;;;5.05;;
60979;SDS011;46851;49.160;8.980;2023-01-08T01:08:11;8.45;;;4.82;;
60979;SDS011;46851;49.160;8.980;2023-01-08T01:10:37;7.00;;;5.15;;
60979;SDS011;46851;49.160;8.980;2023-01-08T01:13:03;8.80;;;4.93;;
60979;SDS011;46851;49.160;8.980;2023-01-08T01:15:29;8.27;;;5.20;;
60979;SDS011;46851;49.160;8.980;2023-01-08T01:17:55;7.47;;;5.15;;
60979;SDS011;46851;49.160;8.980;2023-01-08T01:20:21;7.57;;;4.85;;
60979;SDS011;46851;49.160;8.980;2023-01-08T01:22:47;7.32;;;5.03;;
60979;SDS011;46851;49.160;8.980;2023-01-08T01:25:14;8.32;;;5.53;;
60979;SDS011;46851;49.160;8.980;2023-01-08T01:27:40;7.22;;;4.78;;
60979;SDS011;46851;49.160;8.980;2023-01-08T01:30:06;7.90;;;4.85;;
60979;SDS011;46851;49.160;8.980;2023-01-08T01:32:32;8.63;;;5.10;;
60979;SDS011;46851;49.160;8.980;2023-01-08T01:34:58;7.88;;;5.20;;
60979;SDS011;46851;49.160;8.980;2023-01-08T01:37:24;7.95;;;5.43;;
60979;SDS011;46851;49.160;8.980;2023-01-08T01:39:51;7.57;;;5.35;;
60979;SDS011;46851;49.160;8.980;2023-01-08T01:42:18;7.28;;;4.97;;
60979;SDS011;46851;49.160;8.980;2023-01-08T01:45:05;10.55;;;6.20;;
60979;SDS011;46851;49.160;8.980;2023-01-08T01:47:36;8.77;;;5.32;;
60979;SDS011;46851;49.160;8.980;2023-01-08T01:52:34;7.82;;;5.45;;
60979;SDS011;46851;49.160;8.980;2023-01-08T01:55:01;9.23;;;6.30;;
60979;SDS011;46851;49.160;8.980;2023-01-08T01:57:28;9.95;;;6.18;;
60979;SDS011;46851;49.160;8.980;2023-01-08T01:59:55;9.93;;;6.53;;
60979;SDS011;46851;49.160;8.980;2023-01-08T02:02:22;9.18;;;5.88;;
60979;SDS011;46851;49.160;8.980;2023-01-08T02:04:49;8.45;;;5.45;;
60979;SDS011;46851;49.160;8.980;2023-01-08T02:07:16;9.15;;;6.25;;
60979;SDS011;46851;49.160;8.980;2023-01-08T02:12:10;8.45;;;5.53;;
60979;SDS011;46851;49.160;8.980;2023-01-08T02:14:46;9.07;;;5.43;;
60979;SDS011;46851;49.160;8.980;2023-01-08T02:17:15;10.77;;;5.90;;
60979;SDS011;46851;49.160;8.980;2023-01-08T02:19:42;7.97;;;5.40;;
60979;SDS011;46851;49.160;8.980;2023-01-08T02:24:50;7.47;;;4.97;;
60979;SDS011;46851;49.160;8.980;2023-01-08T02:27:18;8.73;;;5.40;;
60979;SDS011;46851;49.160;8.980;2023-01-08T02:29:45;8.25;;;5.32;;
60979;SDS011;46851;49.160;8.980;2023-01-08T02:32:12;7.40;;;5.32;;
60979;SDS011;46851;49.160;8.980;2023-01-08T02:34:38;11.82;;;5.53;;
60979;SDS011;46851;49.160;8.980;2023-01-08T02:37:04;6.93;;;5.07;;
60979;SDS011;46851;49.160;8.980;2023-01-08T02:39:38;7.93;;;5.40;;
60979;SDS011;46851;49.160;8.980;2023-01-08T02:44:49;8.57;;;5.40;;
60979;SDS011;46851;49.160;8.980;2023-01-08T02:47:24;8.10;;;5.40;;
60979;SDS011;46851;49.160;8.980;2023-01-08T02:49:53;7.00;;;4.93;;
60979;SDS011;46851;49.160;8.980;2023-01-08T02:52:20;8.38;;;5.60;;
60979;SDS011;46851;49.160;8.980;2023-01-08T02:54:48;7.63;;;5.43;;
60979;SDS011;46851;49.160;8.980;2023-01-08T02:57:14;7.68;;;5.72;;
60979;SDS011;46851;49.160;8.980;2023-01-08T02:59:42;6.55;;;4.88;;
60979;SDS011;46851;49.160;8.980;2023-01-08T03:02:08;7.45;;;5.22;;
60979;SDS011;46851;49.160;8.980;2023-01-08T03:04:36;7.45;;;5.57;;
60979;SDS011;46851;49.160;8.980;2023-01-08T03:07:04;8.65;;;5.35;;
60979;SDS011;46851;49.160;8.980;2023-01-08T03:09:30;9.15;;;5.35;;
60979;SDS011;46851;49.160;8.980;2023-01-08T03:11:57;7.72;;;5.22;;
60979;SDS011;46851;49.160;8.980;2023-01-08T03:14:29;7.75;;;4.93;;
60979;SDS011;46851;49.160;8.980;2023-01-08T03:16:57;7.65;;;5.38;;
60979;SDS011;46851;49.160;8.980;2023-01-08T03:19:34;8.85;;;5.50;;
60979;SDS011;46851;49.160;8.980;2023-01-08T03:22:02;7.80;;;4.82;;
60979;SDS011;46851;49.160;8.980;2023-01-08T03:24:32;7.43;;;4.88;;
60979;SDS011;46851;49.160;8.980;2023-01-08T03:26:59;7.97;;;5.43;;
60979;SDS011;46851;49.160;8.980;2023-01-08T03:29:27;7.78;;;4.82;;
60979;SDS011;46851;49.160;8.980;2023-01-08T03:31:55;6.90;;;4.88;;
60979;SDS011;46851;49.160;8.980;2023-01-08T03:34:22;6.35;;;4.45;;
60979;SDS011;46851;49.160;8.980;2023-01-08T03:36:49;6.32;;;4.72;;
60979;SDS011;46851;49.160;8.980;2023-01-08T03:41:42;6.57;;;4.32;;
60979;SDS011;46851;49.160;8.980;2023-01-08T03:44:09;6.57;;;4.30;;
60979;SDS011;46851;49.160;8.980;2023-01-08T03:46:37;6.63;;;4.13;;
60979;SDS011;46851;49.160;8.980;2023-01-08T03:49:05;7.05;;;4.50;;
60979;SDS011;46851;49.160;8.980;2023-01-08T03:51:40;6.30;;;4.10;;
60979;SDS011;46851;49.160;8.980;2023-01-08T03:54:06;6.68;;;4.57;;
60979;SDS011;46851;49.160;8.980;2023-01-08T03:56:34;7.57;;;4.38;;
60979;SDS011;46851;49.160;8.980;2023-01-08T03:58:59;6.95;;;4.38;;
60979;SDS011;46851;49.160;8.980;2023-01-08T04:01:25;9.13;;;4.75;;
60979;SDS011;46851;49.160;8.980;2023-01-08T04:03:51;6.97;;;4.50;;
60979;SDS011;46851;49.160;8.980;2023-01-08T04:06:17;6.63;;;4.75;;
60979;SDS011;46851;49.160;8.980;2023-01-08T04:08:45;6.70;;;4.10;;
60979;SDS011;46851;49.160;8.980;2023-01-08T04:11:12;6.82;;;4.35;;
60979;SDS011;46851;49.160;8.980;2023-01-08T04:13:38;6.80;;;4.40;;
60979;SDS011;46851;49.160;8.980;2023-01-08T04:16:04;8.77;;;4.95;;
60979;SDS011;46851;49.160;8.980;2023-01-08T04:18:30;6.70;;;4.47;;
60979;SDS011;46851;49.160;8.980;2023-01-08T04:20:56;7.00;;;3.90;;
60979;SDS011;46851;49.160;8.980;2023-01-08T04:23:22;7.18;;;4.50;;
60979;SDS011;46851;49.160;8.980;2023-01-08T04:25:48;7.28;;;3.60;;
60979;SDS011;46851;49.160;8.980;2023-01-08T04:28:14;6.50;;;4.13;;
60979;SDS011;46851;49.160;8.980;2023-01-08T04:30:40;5.55;;;3.45;;
60979;SDS011;46851;49.160;8.980;2023-01-08T04:33:06;5.15;;;3.30;;
60979;SDS011;46851;49.160;8.980;2023-01-08T04:35:32;7.47;;;3.75;;
60979;SDS011;46851;49.160;8.980;2023-01-08T04:37:58;6.80;;;3.55;;
60979;SDS011;46851;49.160;8.980;2023-01-08T04:40:24;4.85;;;3.63;;
60979;SDS011;46851;49.160;8.980;2023-01-08T04:42:50;4.60;;;3.45;;
60979;SDS011;46851;49.160;8.980;2023-01-08T04:45:16;3.75;;;3.05;;
60979;SDS011;46851;49.160;8.980;2023-01-08T04:47:42;4.50;;;3.40;;
60979;SDS011;46851;49.160;8.980;2023-01-08T04:50:08;7.28;;;3.80;;
60979;SDS011;46851;49.160;8.980;2023-01-08T04:52:34;5.63;;;4.13;;
60979;SDS011;46851;49.160;8.980;2023-01-08T04:55:00;4.93;;;3.90;;
60979;SDS011;46851;49.160;8.980;2023-01-08T04:57:26;4.90;;;3.70;;
60979;SDS011;46851;49.160;8.980;2023-01-08T04:59:52;6.35;;;4.00;;
60979;SDS011;46851;49.160;8.980;2023-01-08T05:02:18;6.25;;;3.60;;
60979;SDS011;46851;49.160;8.980;2023-01-08T05:04:44;5.70;;;3.58;;
60979;SDS011;46851;49.160;8.980;2023-01-08T05:07:10;4.85;;;3.90;;
60979;SDS011;46851;49.160;8.980;2023-01-08T05:09:36;4.95;;;3.92;;
60979;SDS011;46851;49.160;8.980;2023-01-08T05:12:02;6.03;;;3.78;;
60979;SDS011;46851;49.160;8.980;2023-01-08T05:14:28;5.22;;;3.90;;
60979;SDS011;46851;49.160;8.980;2023-01-08T05:16:54;6.43;;;3.90;;
60979;SDS011;46851;49.160;8.980;2023-01-08T05:19:20;6.82;;;4.80;;
60979;SDS011;46851;49.160;8.980;2023-01-08T05:21:46;6.28;;;4.15;;
60979;SDS011;46851;49.160;8.980;2023-01-08T05:24:12;7.97;;;4.50;;
60979;SDS011;46851;49.160;8.980;2023-01-08T05:26:38;6.85;;;4.00;;
60979;SDS011;46851;49.160;8.980;2023-01-08T05:29:04;6.88;;;4.25;;
60979;SDS011;46851;49.160;8.980;2023-01-08T05:31:30;6.65;;;4.30;;
60979;SDS011;46851;49.160;8.980;2023-01-08T05:33:56;5.93;;;4.00;;
60979;SDS011;46851;49.160;8.980;2023-01-08T05:36:23;5.85;;;4.18;;
60979;SDS011;46851;49.160;8.980;2023-01-08T05:38:48;5.70;;;3.90;;
60979;SDS011;46851;49.160;8.980;2023-01-08T05:41:14;5.97;;;4.55;;
60979;SDS011;46851;49.160;8.980;2023-01-08T05:43:41;7.45;;;4.50;;
60979;SDS011;46851;49.160;8.980;2023-01-08T05:46:07;6.25;;;4.00;;
60979;SDS011;46851;49.160;8.980;2023-01-08T05:48:33;6.85;;;4.18;;
60979;SDS011;46851;49.160;8.980;2023-01-08T05:51:00;7.05;;;4.32;;
60979;SDS011;46851;49.160;8.980;2023-01-08T05:53:26;5.47;;;4.10;;
60979;SDS011;46851;49.160;8.980;2023-01-08T05:55:56;6.78;;;4.15;;
60979;SDS011;46851;49.160;8.980;2023-01-08T05:58:22;8.63;;;4.95;;
60979;SDS011;46851;49.160;8.980;2023-01-08T06:00:48;6.65;;;4.05;;
60979;SDS011;46851;49.160;8.980;2023-01-08T06:03:14;5.82;;;4.50;;
60979;SDS011;46851;49.160;8.980;2023-01-08T06:05:40;7.07;;;5.43;;
60979;SDS011;46851;49.160;8.980;2023-01-08T06:08:06;8.63;;;5.60;;
60979;SDS011;46851;49.160;8.980;2023-01-08T06:10:32;7.28;;;5.30;;
60979;SDS011;46851;49.160;8.980;2023-01-08T06:12:58;7.60;;;4.80;;
60979;SDS011;46851;49.160;8.980;2023-01-08T06:15:24;6.93;;;4.72;;
60979;SDS011;46851;49.160;8.980;2023-01-08T06:17:50;6.97;;;4.07;;
60979;SDS011;46851;49.160;8.980;2023-01-08T06:20:16;7.07;;;4.50;;
60979;SDS011;46851;49.160;8.980;2023-01-08T06:22:42;6.93;;;4.75;;
60979;SDS011;46851;49.160;8.980;2023-01-08T06:25:08;6.05;;;4.43;;
60979;SDS011;46851;49.160;8.980;2023-01-08T06:27:34;7.90;;;3.90;;
60979;SDS011;46851;49.160;8.980;2023-01-08T06:30:00;7.10;;;4.18;;
60979;SDS011;46851;49.160;8.980;2023-01-08T06:32:26;9.10;;;3.80;;
60979;SDS011;46851;49.160;8.980;2023-01-08T06:34:52;5.50;;;4.20;;
60979;SDS011;46851;49.160;8.980;2023-01-08T06:37:18;6.78;;;4.05;;
60979;SDS011;46851;49.160;8.980;2023-01-08T06:39:44;4.43;;;3.30;;
60979;SDS011;46851;49.160;8.980;2023-01-08T06:42:10;4.25;;;3.35;;
60979;SDS011;46851;49.160;8.980;2023-01-08T06:44:36;5.10;;;3.45;;
60979;SDS011;46851;49.160;8.980;2023-01-08T06:47:02;5.80;;;3.33;;
60979;SDS011;46851;49.160;8.980;2023-01-08T06:49:28;5.30;;;2.88;;
60979;SDS011;46851;49.160;8.980;2023-01-08T06:51:54;5.18;;;2.83;;
60979;SDS011;46851;49.160;8.980;2023-01-08T06:54:21;5.10;;;3.33;;
60979;SDS011;46851;49.160;8.980;2023-01-08T06:56:47;5.70;;;3.63;;
60979;SDS011;46851;49.160;8.980;2023-01-08T06:59:13;5.07;;;3.25;;
60979;SDS011;46851;49.160;8.980;2023-01-08T07:01:39;5.03;;;3.35;;
60979;SDS011;46851;49.160;8.980;2023-01-08T07:04:05;5.18;;;3.40;;
60979;SDS011;46851;49.160;8.980;2023-01-08T07:06:31;6.47;;;3.30;;
60979;SDS011;46851;49.160;8.980;2023-01-08T07:08:57;4.25;;;2.80;;
60979;SDS011;46851;49.160;8.980;2023-01-08T07:11:23;4.57;;;3.03;;
60979;SDS011;46851;49.160;8.980;2023-01-08T07:13:49;4.53;;;2.60;;
60979;SDS011;46851;49.160;8.980;2023-01-08T07:16:16;4.05;;;2.80;;
60979;SDS011;46851;49.160;8.980;2023-01-08T07:18:42;4.25;;;2.63;;
60979;SDS011;46851;49.160;8.980;2023-01-08T07:21:08;3.88;;;2.42;;
60979;SDS011;46851;49.160;8.980;2023-01-08T07:23:34;4.35;;;2.58;;
60979;SDS011;46851;49.160;8.980;2023-01-08T07:26:02;5.90;;;2.40;;
60979;SDS011;46851;49.160;8.980;2023-01-08T07:28:29;5.43;;;2.60;;
60979;SDS011;46851;49.160;8.980;2023-01-08T07:30:55;3.83;;;2.78;;
60979;SDS011;46851;49.160;8.980;2023-01-08T07:33:21;2.30;;;2.10;;
60979;SDS011;46851;49.160;8.980;2023-01-08T07:35:51;2.33;;;2.10;;
60979;SDS011;46851;49.160;8.980;2023-01-08T07:38:17;4.32;;;2.67;;
60979;SDS011;46851;49.160;8.980;2023-01-08T07:40:43;3.70;;;2.30;;
60979;SDS011;46851;49.160;8.980;2023-01-08T07:43:09;3.95;;;1.95;;
60979;SDS011;46851;49.160;8.980;2023-01-08T07:45:36;3.45;;;2.10;;
60979;SDS011;46851;49.160;8.980;2023-01-08T07:48:02;9.15;;;7.20;;
60979;SDS011;46851;49.160;8.980;2023-01-08T07:50:29;6.10;;;3.33;;
60979;SDS011;46851;49.160;8.980;2023-01-08T07:52:58;2.30;;;1.45;;
60979;SDS011;46851;49.160;8.980;2023-01-08T07:55:24;2.85;;;1.77;;
60979;SDS011;46851;49.160;8.980;2023-01-08T07:57:50;2.83;;;2.45;;
60979;SDS011;46851;49.160;8.980;2023-01-08T08:00:17;3.08;;;1.95;;
60979;SDS011;46851;49.160;8.980;2023-01-08T08:02:43;3.05;;;2.13;;
60979;SDS011;46851;49.160;8.980;2023-01-08T08:05:09;2.78;;;2.45;;
60979;SDS011;46851;49.160;8.980;2023-01-08T08:07:35;2.42;;;2.22;;
60979;SDS011;46851;49.160;8.980;2023-01-08T08:10:02;2.47;;;1.92;;
60979;SDS011;46851;49.160;8.980;2023-01-08T08:12:29;3.75;;;1.45;;
60979;SDS011;46851;49.160;8.980;2023-01-08T08:14:55;1.85;;;1.40;;
60979;SDS011;46851;49.160;8.980;2023-01-08T08:17:21;2.90;;;2.40;;
60979;SDS011;46851;49.160;8.980;2023-01-08T08:19:47;2.17;;;1.90;;
60979;SDS011;46851;49.160;8.980;2023-01-08T08:22:13;2.60;;;1.90;;
60979;SDS011;46851;49.160;8.980;2023-01-08T08:24:39;1.92;;;1.65;;
60979;SDS011;46851;49.160;8.980;2023-01-08T08:27:05;2.38;;;1.45;;
60979;SDS011;46851;49.160;8.980;2023-01-08T08:29:31;2.50;;;1.50;;
60979;SDS011;46851;49.160;8.980;2023-01-08T08:31:57;2.28;;;1.70;;
60979;SDS011;46851;49.160;8.980;2023-01-08T08:34:23;2.10;;;1.90;;
60979;SDS011;46851;49.160;8.980;2023-01-08T08:36:49;2.30;;;1.70;;
60979;SDS011;46851;49.160;8.980;2023-01-08T08:39:15;2.90;;;1.58;;
60979;SDS011;46851;49.160;8.980;2023-01-08T08:41:41;1.85;;;1.50;;
60979;SDS011;46851;49.160;8.980;2023-01-08T08:44:07;2.42;;;1.60;;
60979;SDS011;46851;49.160;8.980;2023-01-08T08:46:33;3.63;;;2.22;;
60979;SDS011;46851;49.160;8.980;2023-01-08T08:48:59;14.13;;;3.28;;
60979;SDS011;46851;49.160;8.980;2023-01-08T08:51:26;5.95;;;2.67;;
60979;SDS011;46851;49.160;8.980;2023-01-08T08:53:52;2.60;;;1.90;;
60979;SDS011;46851;49.160;8.980;2023-01-08T08:56:18;3.08;;;2.00;;
60979;SDS011;46851;49.160;8.980;2023-01-08T08:58:44;3.50;;;2.22;;
60979;SDS011;46851;49.160;8.980;2023-01-08T09:01:10;5.57;;;2.40;;
60979;SDS011;46851;49.160;8.980;2023-01-08T09:03:37;4.13;;;2.50;;
60979;SDS011;46851;49.160;8.980;2023-01-08T09:06:03;2.88;;;1.85;;
60979;SDS011;46851;49.160;8.980;2023-01-08T09:08:29;3.03;;;1.60;;
60979;SDS011;46851;49.160;8.980;2023-01-08T09:10:55;1.70;;;1.40;;
60979;SDS011;46851;49.160;8.980;2023-01-08T09:13:21;1.88;;;1.50;;
60979;SDS011;46851;49.160;8.980;2023-01-08T09:15:47;2.35;;;1.60;;
60979;SDS011;46851;49.160;8.980;2023-01-08T09:18:13;1.35;;;1.25;;
60979;SDS011;46851;49.160;8.980;2023-01-08T09:20:39;2.03;;;1.55;;
60979;SDS011;46851;49.160;8.980;2023-01-08T09:23:05;2.75;;;1.63;;
60979;SDS011;46851;49.160;8.980;2023-01-08T09:25:31;2.40;;;1.38;;
60979;SDS011;46851;49.160;8.980;2023-01-08T09:28:01;9.77;;;4.10;;
60979;SDS011;46851;49.160;8.980;2023-01-08T09:30:28;27.98;;;9.55;;
60979;SDS011;46851;49.160;8.980;2023-01-08T09:33:00;41.63;;;13.20;;
60979;SDS011;46851;49.160;8.980;2023-01-08T09:35:27;37.25;;;12.45;;
60979;SDS011;46851;49.160;8.980;2023-01-08T09:37:53;30.13;;;11.57;;
60979;SDS011;46851;49.160;8.980;2023-01-08T09:40:19;28.30;;;9.85;;
60979;SDS011;46851;49.160;8.980;2023-01-08T09:42:49;11.85;;;5.28;;
60979;SDS011;46851;49.160;8.980;2023-01-08T09:45:21;7.18;;;3.00;;
60979;SDS011;46851;49.160;8.980;2023-01-08T09:47:48;6.85;;;2.80;;
60979;SDS011;46851;49.160;8.980;2023-01-08T09:50:14;18.13;;;7.25;;
60979;SDS011;46851;49.160;8.980;2023-01-08T09:52:40;14.13;;;6.50;;
60979;SDS011;46851;49.160;8.980;2023-01-08T09:55:13;10.32;;;4.93;;
60979;SDS011;46851;49.160;8.980;2023-01-08T09:57:39;28.77;;;10.57;;
60979;SDS011;46851;49.160;8.980;2023-01-08T10:00:48;10.43;;;5.13;;
60979;SDS011;46851;49.160;8.980;2023-01-08T10:02:55;16.00;;;6.75;;
60979;SDS011;46851;49.160;8.980;2023-01-08T10:05:22;16.05;;;7.07;;
60979;SDS011;46851;49.160;8.980;2023-01-08T10:07:48;10.95;;;5.72;;
60979;SDS011;46851;49.160;8.980;2023-01-08T10:10:19;9.32;;;5.03;;
60979;SDS011;46851;49.160;8.980;2023-01-08T10:12:45;11.50;;;5.82;;
60979;SDS011;46851;49.160;8.980;2023-01-08T10:15:15;15.98;;;7.50;;
60979;SDS011;46851;49.160;8.980;2023-01-08T10:18:02;8.15;;;3.60;;
60979;SDS011;46851;49.160;8.980;2023-01-08T10:20:28;6.15;;;3.35;;
60979;SDS011;46851;49.160;8.980;2023-01-08T10:22:55;3.35;;;2.80;;
60979;SDS011;46851;49.160;8.980;2023-01-08T10:25:22;41.33;;;19.73;;
60979;SDS011;46851;49.160;8.980;2023-01-08T10:27:59;10.73;;;6.50;;
60979;SDS011;46851;49.160;8.980;2023-01-08T10:33:01;7.28;;;3.88;;
60979;SDS011;46851;49.160;8.980;2023-01-08T10:35:30;6.10;;;4.20;;
60979;SDS011;46851;49.160;8.980;2023-01-08T10:37:57;6.90;;;3.97;;
60979;SDS011;46851;49.160;8.980;2023-01-08T10:42:57;5.68;;;3.90;;
60979;SDS011;46851;49.160;8.980;2023-01-08T10:45:31;5.72;;;3.75;;
60979;SDS011;46851;49.160;8.980;2023-01-08T10:47:58;4.82;;;3.30;;
60979;SDS011;46851;49.160;8.980;2023-01-08T10:50:29;5.50;;;3.60;;
60979;SDS011;46851;49.160;8.980;2023-01-08T10:52:56;5.32;;;3.65;;
60979;SDS011;46851;49.160;8.980;2023-01-08T10:55:25;5.65;;;3.50;;
60979;SDS011;46851;49.160;8.980;2023-01-08T10:57:52;5.35;;;3.67;;
60979;SDS011;46851;49.160;8.980;2023-01-08T11:00:25;5.32;;;3.45;;
60979;SDS011;46851;49.160;8.980;2023-01-08T11:02:52;5.05;;;3.42;;
60979;SDS011;46851;49.160;8.980;2023-01-08T11:05:18;4.72;;;3.83;;
60979;SDS011;46851;49.160;8.980;2023-01-08T11:07:47;7.22;;;4.88;;
60979;SDS011;46851;49.160;8.980;2023-01-08T11:10:20;6.47;;;4.55;;
60979;SDS011;46851;49.160;8.980;2023-01-08T11:12:47;6.65;;;3.45;;
60979;SDS011;46851;49.160;8.980;2023-01-08T11:15:29;5.28;;;3.25;;
60979;SDS011;46851;49.160;8.980;2023-01-08T11:18:05;5.38;;;3.15;;
60979;SDS011;46851;49.160;8.980;2023-01-08T11:20:32;4.30;;;3.30;;
60979;SDS011;46851;49.160;8.980;2023-01-08T11:23:14;5.80;;;3.60;;
60979;SDS011;46851;49.160;8.980;2023-01-08T11:25:41;6.00;;;3.97;;
60979;SDS011;46851;49.160;8.980;2023-01-08T11:28:10;4.00;;;2.72;;
60979;SDS011;46851;49.160;8.980;2023-01-08T11:30:40;6.07;;;2.90;;
60979;SDS011;46851;49.160;8.980;2023-01-08T11:33:11;5.82;;;3.05;;
60979;SDS011;46851;49.160;8.980;2023-01-08T11:35:44;4.55;;;2.80;;
60979;SDS011;46851;49.160;8.980;2023-01-08T11:38:11;4.43;;;2.72;;
60979;SDS011;46851;49.160;8.980;2023-01-08T11:40:50;2.58;;;1.77;;
60979;SDS011;46851;49.160;8.980;2023-01-08T11:48:38;2.15;;;1.30;;
60979;SDS011;46851;49.160;8.980;2023-01-08T11:59:00;1.17;;;1.02;;
60979;SDS011;46851;49.160;8.980;2023-01-08T12:07:18;10.32;;;4.82;;
60979;SDS011;46851;49.160;8.980;2023-01-08T12:09:52;2.10;;;1.45;;
60979;SDS011;46851;49.160;8.980;2023-01-08T12:15:29;2.08;;;1.20;;
60979;SDS011;46851;49.160;8.980;2023-01-08T12:18:07;1.65;;;1.20;;
60979;SDS011;46851;49.160;8.980;2023-01-08T12:20:46;2.20;;;1.40;;
60979;SDS011;46851;49.160;8.980;2023-01-08T12:23:43;1.45;;;1.10;;
60979;SDS011;46851;49.160;8.980;2023-01-08T12:26:29;3.08;;;1.05;;
60979;SDS011;46851;49.160;8.980;2023-01-08T12:33:59;1.13;;;1.02;;
60979;SDS011;46851;49.160;8.980;2023-01-08T12:36:35;3.28;;;1.45;;
60979;SDS011;46851;49.160;8.980;2023-01-08T12:39:03;2.67;;;1.50;;
60979;SDS011;46851;49.160;8.980;2023-01-08T12:41:32;1.50;;;0.98;;
60979;SDS011;46851;49.160;8.980;2023-01-08T12:44:05;2.53;;;1.20;;
60979;SDS011;46851;49.160;8.980;2023-01-08T12:46:37;2.13;;;1.27;;
60979;SDS011;46851;49.160;8.980;2023-01-08T12:49:04;6.75;;;2.20;;
60979;SDS011;46851;49.160;8.980;2023-01-08T12:56:42;5.43;;;2.25;;
60979;SDS011;46851;49.160;8.980;2023-01-08T13:04:42;4.50;;;2.25;;
60979;SDS011;46851;49.160;8.980;2023-01-08T13:12:42;3.25;;;1.70;;
60979;SDS011;46851;49.160;8.980;2023-01-08T13:15:17;3.17;;;1.60;;
60979;SDS011;46851;49.160;8.980;2023-01-08T13:17:46;4.85;;;2.20;;
60979;SDS011;46851;49.160;8.980;2023-01-08T13:20:13;4.78;;;2.03;;
60979;SDS011;46851;49.160;8.980;2023-01-08T13:22:49;4.95;;;1.98;;
60979;SDS011;46851;49.160;8.980;2023-01-08T13:27:42;4.13;;;1.70;;
60979;SDS011;46851;49.160;8.980;2023-01-08T13:32:53;2.28;;;1.50;;
60979;SDS011;46851;49.160;8.980;2023-01-08T13:35:29;3.28;;;1.77;;
60979;SDS011;46851;49.160;8.980;2023-01-08T13:43:14;1.88;;;1.20;;
60979;SDS011;46851;49.160;8.980;2023-01-08T13:45:42;2.40;;;1.48;;
60979;SDS011;46851;49.160;8.980;2023-01-08T13:50:38;2.42;;;1.48;;
60979;SDS011;46851;49.160;8.980;2023-01-08T13:53:10;4.32;;;1.55;;
60979;SDS011;46851;49.160;8.980;2023-01-08T13:55:38;1.88;;;1.27;;
60979;SDS011;46851;49.160;8.980;2023-01-08T13:58:07;1.55;;;1.05;;
60979;SDS011;46851;49.160;8.980;2023-01-08T14:00:42;1.50;;;1.00;;
60979;SDS011;46851;49.160;8.980;2023-01-08T14:06:07;1.67;;;1.10;;
60979;SDS011;46851;49.160;8.980;2023-01-08T14:08:33;1.83;;;0.90;;
60979;SDS011;46851;49.160;8.980;2023-01-08T14:10:59;0.95;;;0.90;;
60979;SDS011;46851;49.160;8.980;2023-01-08T14:13:26;1.33;;;0.77;;
60979;SDS011;46851;49.160;8.980;2023-01-08T14:15:57;4.93;;;1.80;;
60979;SDS011;46851;49.160;8.980;2023-01-08T14:18:25;1.13;;;0.82;;
60979;SDS011;46851;49.160;8.980;2023-01-08T14:20:52;1.48;;;1.10;;
60979;SDS011;46851;49.160;8.980;2023-01-08T14:23:20;1.50;;;1.08;;
60979;SDS011;46851;49.160;8.980;2023-01-08T14:25:48;1.20;;;0.70;;
60979;SDS011;46851;49.160;8.980;2023-01-08T14:28:15;1.52;;;1.00;;
60979;SDS011;46851;49.160;8.980;2023-01-08T14:30:49;0.95;;;0.75;;
60979;SDS011;46851;49.160;8.980;2023-01-08T14:33:15;2.03;;;1.00;;
60979;SDS011;46851;49.160;8.980;2023-01-08T14:35:41;2.33;;;0.70;;
60979;SDS011;46851;49.160;8.980;2023-01-08T14:38:12;1.33;;;0.88;;
60979;SDS011;46851;49.160;8.980;2023-01-08T14:40:41;1.67;;;1.00;;
60979;SDS011;46851;49.160;8.980;2023-01-08T14:43:08;0.93;;;0.50;;
60979;SDS011;46851;49.160;8.980;2023-01-08T14:45:36;1.27;;;0.70;;
60979;SDS011;46851;49.160;8.980;2023-01-08T14:48:38;2.55;;;1.05;;
60979;SDS011;46851;49.160;8.980;2023-01-08T14:50:59;1.42;;;0.80;;
60979;SDS011;46851;49.160;8.980;2023-01-08T14:55:51;1.80;;;0.90;;
60979;SDS011;46851;49.160;8.980;2023-01-08T14:58:22;3.28;;;1.30;;
60979;SDS011;46851;49.160;8.980;2023-01-08T15:00:53;2.10;;;1.20;;
60979;SDS011;46851;49.160;8.980;2023-01-08T15:03:40;2.53;;;1.25;;
60979;SDS011;46851;49.160;8.980;2023-01-08T15:06:07;0.90;;;0.75;;
60979;SDS011;46851;49.160;8.980;2023-01-08T15:08:41;0.90;;;0.60;;
60979;SDS011;46851;49.160;8.980;2023-01-08T15:13:43;1.55;;;0.90;;
60979;SDS011;46851;49.160;8.980;2023-01-08T15:16:11;0.80;;;0.73;;
60979;SDS011;46851;49.160;8.980;2023-01-08T15:18:42;1.77;;;0.95;;
60979;SDS011;46851;49.160;8.980;2023-01-08T15:21:09;0.82;;;0.80;;
60979;SDS011;46851;49.160;8.980;2023-01-08T15:23:39;1.33;;;1.00;;
60979;SDS011;46851;49.160;8.980;2023-01-08T15:26:09;2.00;;;1.40;;
60979;SDS011;46851;49.160;8.980;2023-01-08T15:28:36;2.90;;;1.60;;
60979;SDS011;46851;49.160;8.980;2023-01-08T15:31:03;2.60;;;1.50;;
60979;SDS011;46851;49.160;8.980;2023-01-08T15:33:29;0.75;;;0.70;;
60979;SDS011;46851;49.160;8.980;2023-01-08T15:35:55;3.72;;;1.48;;
60979;SDS011;46851;49.160;8.980;2023-01-08T15:38:21;1.27;;;1.00;;
60979;SDS011;46851;49.160;8.980;2023-01-08T15:40:52;1.55;;;1.13;;
60979;SDS011;46851;49.160;8.980;2023-01-08T15:43:18;1.73;;;1.10;;
60979;SDS011;46851;49.160;8.980;2023-01-08T15:45:46;1.70;;;1.00;;
60979;SDS011;46851;49.160;8.980;2023-01-08T15:48:12;1.95;;;1.20;;
60979;SDS011;46851;49.160;8.980;2023-01-08T15:50:40;1.75;;;1.17;;
60979;SDS011;46851;49.160;8.980;2023-01-08T15:53:19;2.45;;;1.38;;
60979;SDS011;46851;49.160;8.980;2023-01-08T15:55:49;2.80;;;1.60;;
60979;SDS011;46851;49.160;8.980;2023-01-08T15:58:17;3.88;;;1.75;;
60979;SDS011;46851;49.160;8.980;2023-01-08T16:00:43;1.83;;;1.40;;
60979;SDS011;46851;49.160;8.980;2023-01-08T16:03:10;3.53;;;2.30;;
60979;SDS011;46851;49.160;8.980;2023-01-08T16:05:37;4.18;;;2.47;;
60979;SDS011;46851;49.160;8.980;2023-01-08T16:08:03;2.33;;;1.85;;
60979;SDS011;46851;49.160;8.980;2023-01-08T16:10:29;2.15;;;1.80;;
60979;SDS011;46851;49.160;8.980;2023-01-08T16:12:55;2.97;;;1.95;;